createdAt,value
2019-06-08T00:01:29.403Z,1.20
2019-06-08T00:03:20.681Z,0.98
2019-06-08T00:05:12.568Z,1.10
2019-06-08T00:07:03.544Z,0.90
2019-06-08T00:08:54.606Z,0.93
2019-06-08T00:10:45.114Z,0.98
2019-06-08T00:12:36.444Z,0.90
2019-06-08T00:14:27.752Z,0.80
2019-06-08T00:16:19.365Z,1.02
2019-06-08T00:18:10.840Z,1.02
2019-06-08T00:20:01.839Z,1.00
2019-06-08T00:21:52.857Z,0.80
2019-06-08T00:23:43.304Z,0.85
2019-06-08T00:25:34.493Z,0.98
2019-06-08T00:27:25.660Z,0.95
2019-06-08T00:29:16.378Z,1.00
2019-06-08T00:31:07.598Z,0.93
2019-06-08T00:32:58.212Z,0.85
2019-06-08T00:34:48.887Z,0.80
2019-06-08T00:36:39.505Z,0.98
2019-06-08T00:38:30.404Z,0.90
2019-06-08T00:40:21.093Z,0.85
2019-06-08T00:42:12.369Z,0.90
2019-06-08T00:44:03.543Z,0.82
2019-06-08T00:45:54.165Z,1.07
2019-06-08T00:47:48.060Z,1.00
2019-06-08T00:49:36.947Z,1.17
2019-06-08T00:51:27.729Z,0.82
2019-06-08T00:53:19.706Z,0.85
2019-06-08T00:55:10.512Z,1.10
2019-06-08T00:57:01.062Z,0.98
2019-06-08T00:58:52.243Z,1.00
2019-06-08T01:00:43.443Z,1.00
2019-06-08T01:02:34.621Z,1.05
2019-06-08T01:04:25.338Z,0.90
2019-06-08T01:06:16.094Z,1.10
2019-06-08T01:08:06.976Z,1.07
2019-06-08T01:09:57.940Z,0.93
2019-06-08T01:11:48.485Z,1.07
2019-06-08T01:13:39.769Z,1.30
2019-06-08T01:15:34.150Z,1.20
2019-06-08T01:17:23.411Z,1.12
2019-06-08T01:19:13.848Z,0.88
2019-06-08T01:21:05.099Z,0.90
2019-06-08T01:22:56.057Z,0.98
2019-06-08T01:24:47.033Z,0.98
2019-06-08T01:26:38.376Z,0.70
2019-06-08T01:28:30.270Z,0.80
2019-06-08T01:30:22.107Z,0.75
2019-06-08T01:32:13.632Z,0.70
2019-06-08T01:34:04.581Z,0.70
2019-06-08T01:35:55.168Z,0.85
2019-06-08T01:37:45.859Z,0.70
2019-06-08T01:39:37.128Z,0.82
2019-06-08T01:41:27.841Z,0.82
2019-06-08T01:43:19.193Z,0.50
2019-06-08T01:45:09.815Z,0.90
2019-06-08T01:47:00.824Z,0.60
2019-06-08T01:48:51.963Z,0.57
2019-06-08T01:50:42.635Z,0.88
2019-06-08T01:52:33.729Z,0.70
2019-06-08T01:54:24.766Z,0.68
2019-06-08T01:56:15.999Z,0.80
2019-06-08T01:58:06.596Z,0.60
2019-06-08T01:59:57.937Z,0.70
2019-06-08T02:01:49.040Z,0.80
2019-06-08T02:03:39.900Z,0.60
2019-06-08T02:05:32.404Z,0.50
2019-06-08T02:07:26.258Z,0.57
2019-06-08T02:09:16.540Z,0.53
2019-06-08T02:11:07.571Z,0.50
2019-06-08T02:12:58.130Z,0.75
2019-06-08T02:14:49.092Z,0.53
2019-06-08T02:16:40.259Z,0.60
2019-06-08T02:18:41.341Z,0.70
2019-06-08T02:20:23.354Z,0.68
2019-06-08T02:22:13.982Z,0.50
2019-06-08T02:24:04.995Z,1.10
2019-06-08T02:25:55.684Z,0.55
2019-06-08T02:27:47.186Z,0.75
2019-06-08T02:29:38.068Z,0.60
2019-06-08T02:31:30.526Z,0.60
2019-06-08T02:33:20.611Z,0.80
2019-06-08T02:35:11.925Z,0.55
2019-06-08T02:37:02.507Z,0.72
2019-06-08T02:38:53.597Z,0.60
2019-06-08T02:40:44.526Z,0.62
2019-06-08T02:42:37.166Z,0.60
2019-06-08T02:44:30.161Z,0.80
2019-06-08T02:46:21.394Z,0.85
2019-06-08T02:48:12.361Z,0.53
2019-06-08T02:50:02.998Z,0.70
2019-06-08T02:51:53.545Z,0.62
2019-06-08T02:53:44.752Z,0.60
2019-06-08T02:55:35.747Z,0.68
2019-06-08T02:57:29.049Z,0.82
2019-06-08T02:59:19.827Z,0.68
2019-06-08T03:01:11.021Z,0.50
2019-06-08T03:03:02.322Z,0.50
2019-06-08T03:04:52.855Z,0.50
2019-06-08T03:06:44.041Z,0.68
2019-06-08T03:08:35.941Z,0.47
2019-06-08T03:10:26.921Z,0.60
2019-06-08T03:12:17.722Z,0.60
2019-06-08T03:14:08.534Z,0.80
2019-06-08T03:15:59.442Z,0.75
2019-06-08T03:17:50.409Z,0.53
2019-06-08T03:19:41.939Z,0.75
2019-06-08T03:21:33.952Z,0.60
2019-06-08T03:23:25.912Z,0.60
2019-06-08T03:25:17.161Z,0.60
2019-06-08T03:27:08.305Z,0.50
2019-06-08T03:28:59.785Z,0.62
2019-06-08T03:30:54.420Z,0.70
2019-06-08T03:32:51.503Z,0.60
2019-06-08T03:34:39.783Z,0.70
2019-06-08T03:36:27.066Z,0.82
2019-06-08T03:38:19.189Z,0.65
2019-06-08T03:40:10.045Z,0.80
2019-06-08T03:42:01.101Z,0.62
2019-06-08T03:43:51.742Z,0.50
2019-06-08T03:45:43.656Z,0.70
2019-06-08T03:47:36.809Z,0.60
2019-06-08T03:49:41.422Z,0.50
2019-06-08T03:51:18.965Z,0.57
2019-06-08T03:53:10.370Z,0.72
2019-06-08T03:55:01.477Z,0.62
2019-06-08T03:56:52.437Z,0.70
2019-06-08T03:58:45.002Z,0.50
2019-06-08T04:00:36.376Z,0.57
2019-06-08T04:02:27.150Z,0.70
2019-06-08T04:04:18.364Z,1.10
2019-06-08T04:06:09.677Z,0.75
2019-06-08T04:08:01.066Z,0.75
2019-06-08T04:09:51.837Z,0.53
2019-06-08T04:11:44.940Z,0.60
2019-06-08T04:13:35.200Z,0.60
2019-06-08T04:15:26.622Z,0.50
2019-06-08T04:17:17.923Z,0.50
2019-06-08T04:19:08.938Z,0.50
2019-06-08T04:20:59.869Z,0.70
2019-06-08T04:22:50.711Z,0.70
2019-06-08T04:24:42.453Z,0.62
2019-06-08T04:26:34.083Z,0.70
2019-06-08T04:28:25.467Z,0.80
2019-06-08T04:30:16.699Z,0.70
2019-06-08T04:32:08.104Z,0.75
2019-06-08T04:33:58.883Z,0.80
2019-06-08T04:35:50.743Z,0.72
2019-06-08T04:37:42.583Z,0.70
2019-06-08T04:39:34.306Z,0.60
2019-06-08T04:41:25.571Z,0.63
2019-06-08T04:43:16.060Z,0.60
2019-06-08T04:45:06.612Z,0.50
2019-06-08T04:46:57.109Z,0.68
2019-06-08T04:48:49.928Z,0.60
2019-06-08T04:50:43.116Z,0.60
2019-06-08T04:52:35.067Z,0.88
2019-06-08T04:54:26.058Z,0.77
2019-06-08T04:56:17.351Z,0.60
2019-06-08T04:58:08.232Z,0.50
2019-06-08T04:59:59.117Z,0.60
2019-06-08T05:01:49.634Z,0.57
2019-06-08T05:03:42.813Z,0.50
2019-06-08T05:05:32.969Z,0.60
2019-06-08T05:07:24.647Z,0.60
2019-06-08T05:09:15.629Z,0.80
2019-06-08T05:11:06.232Z,0.60
2019-06-08T05:12:57.404Z,0.70
2019-06-08T05:14:49.268Z,0.50
2019-06-08T05:16:41.209Z,0.68
2019-06-08T05:18:32.379Z,0.60
2019-06-08T05:20:37.651Z,0.50
2019-06-08T05:22:15.613Z,0.60
2019-06-08T05:24:06.414Z,0.67
2019-06-08T05:25:57.788Z,0.60
2019-06-08T05:27:49.568Z,0.70
2019-06-08T05:29:41.297Z,0.73
2019-06-08T05:31:32.429Z,0.60
2019-06-08T05:33:23.612Z,0.73
2019-06-08T05:35:14.256Z,0.75
2019-06-08T05:37:05.763Z,0.65
2019-06-08T05:38:56.397Z,0.75
2019-06-08T05:40:47.706Z,0.80
2019-06-08T05:42:40.655Z,0.70
2019-06-08T05:44:30.614Z,0.70
2019-06-08T05:46:21.671Z,0.63
2019-06-08T05:48:12.131Z,0.55
2019-06-08T05:50:02.562Z,0.70
2019-06-08T05:51:53.936Z,0.70
2019-06-08T05:53:44.322Z,0.60
2019-06-08T05:55:35.206Z,0.72
2019-06-08T05:57:26.212Z,0.60
2019-06-08T05:59:17.440Z,0.60
2019-06-08T06:01:07.883Z,0.78
2019-06-08T06:02:59.158Z,0.90
2019-06-08T06:04:52.250Z,0.70
2019-06-08T06:06:42.777Z,0.70
2019-06-08T06:08:34.227Z,0.77
2019-06-08T06:10:25.004Z,0.70
2019-06-08T06:12:16.222Z,0.40
2019-06-08T06:14:07.430Z,0.88
2019-06-08T06:15:58.392Z,0.80
2019-06-08T06:17:49.935Z,0.90
2019-06-08T06:19:41.290Z,0.50
2019-06-08T06:21:32.631Z,0.70
2019-06-08T06:23:24.031Z,0.60
2019-06-08T06:25:15.454Z,0.80
2019-06-08T06:27:06.861Z,0.90
2019-06-08T06:28:57.632Z,0.80
2019-06-08T06:30:50.225Z,0.90
2019-06-08T06:32:41.775Z,0.70
2019-06-08T06:34:33.052Z,0.70
2019-06-08T06:36:24.418Z,0.95
2019-06-08T06:38:15.775Z,0.60
2019-06-08T06:40:06.505Z,0.82
2019-06-08T06:41:57.818Z,0.80
2019-06-08T06:43:50.434Z,0.70
2019-06-08T06:45:41.839Z,0.70
2019-06-08T06:47:32.888Z,0.70
2019-06-08T06:49:24.090Z,0.75
2019-06-08T06:51:25.767Z,0.78
2019-06-08T06:53:07.187Z,0.70
2019-06-08T06:54:57.802Z,1.25
2019-06-08T06:56:49.407Z,0.80
2019-06-08T06:58:40.088Z,0.95
2019-06-08T07:00:31.431Z,0.93
2019-06-08T07:02:22.660Z,0.60
2019-06-08T07:04:13.895Z,0.70
2019-06-08T07:06:05.156Z,0.60
2019-06-08T07:07:56.530Z,0.68
2019-06-08T07:09:48.408Z,0.80
2019-06-08T07:11:39.761Z,1.00
2019-06-08T07:13:30.695Z,0.82
2019-06-08T07:15:21.886Z,0.70
2019-06-08T07:17:13.197Z,0.78
2019-06-08T07:19:04.368Z,0.72
2019-06-08T07:20:55.212Z,0.70
2019-06-08T07:22:46.457Z,0.68
2019-06-08T07:24:37.952Z,0.60
2019-06-08T07:26:29.022Z,0.80
2019-06-08T07:28:20.241Z,0.68
2019-06-08T07:30:11.635Z,0.80
2019-06-08T07:32:02.953Z,0.80
2019-06-08T07:33:55.531Z,1.40
2019-06-08T07:35:47.012Z,0.80
2019-06-08T07:37:39.595Z,1.55
2019-06-08T07:39:30.258Z,0.85
2019-06-08T07:41:21.504Z,0.85
2019-06-08T07:43:12.806Z,0.90
2019-06-08T07:45:03.782Z,1.13
2019-06-08T07:46:55.835Z,0.70
2019-06-08T07:48:48.111Z,1.00
2019-06-08T07:50:38.469Z,0.80
2019-06-08T07:52:30.029Z,0.75
2019-06-08T07:54:21.340Z,0.80
2019-06-08T07:56:11.903Z,0.90
2019-06-08T07:58:03.301Z,0.80
2019-06-08T07:59:54.589Z,0.75
2019-06-08T08:01:46.308Z,1.05
2019-06-08T08:03:36.867Z,0.93
2019-06-08T08:07:37.644Z,1.00
2019-06-08T08:09:28.378Z,0.65
2019-06-08T08:11:18.989Z,0.80
2019-06-08T08:13:10.252Z,0.85
2019-06-08T08:15:01.549Z,0.80
2019-06-08T08:16:52.878Z,0.75
2019-06-08T08:18:43.878Z,0.85
2019-06-08T08:20:35.106Z,0.90
2019-06-08T08:22:29.363Z,1.02
2019-06-08T08:24:19.093Z,1.20
2019-06-08T08:26:10.062Z,1.20
2019-06-08T08:28:01.317Z,1.05
2019-06-08T08:29:53.215Z,0.93
2019-06-08T08:31:44.278Z,0.90
2019-06-08T08:33:34.754Z,1.00
2019-06-08T08:35:25.357Z,0.88
2019-06-08T08:37:17.574Z,1.10
2019-06-08T08:39:08.809Z,0.70
2019-06-08T08:41:06.871Z,0.90
2019-06-08T08:42:52.663Z,0.95
2019-06-08T08:44:44.336Z,0.95
2019-06-08T08:46:35.583Z,0.93
2019-06-08T08:48:29.406Z,0.95
2019-06-08T08:50:19.257Z,0.95
2019-06-08T08:52:11.610Z,0.85
2019-06-08T08:54:05.249Z,1.12
2019-06-08T08:55:54.900Z,0.88
2019-06-08T08:57:45.387Z,0.80
2019-06-08T08:59:38.167Z,1.35
2019-06-08T09:01:29.512Z,0.93
2019-06-08T09:03:28.838Z,1.00
2019-06-08T09:05:12.860Z,1.12
2019-06-08T09:07:07.750Z,0.72
2019-06-08T09:08:56.489Z,0.95
2019-06-08T09:10:48.157Z,1.20
2019-06-08T09:12:38.996Z,1.07
2019-06-08T09:14:29.508Z,0.80
2019-06-08T09:16:20.396Z,1.00
2019-06-08T09:18:11.824Z,1.12
2019-06-08T09:20:03.825Z,1.00
2019-06-08T09:21:56.007Z,1.10
2019-06-08T09:23:48.445Z,1.10
2019-06-08T09:25:40.624Z,0.90
2019-06-08T09:27:30.556Z,0.82
2019-06-08T09:29:21.229Z,0.93
2019-06-08T09:31:13.079Z,0.90
2019-06-08T09:33:04.789Z,0.98
2019-06-08T09:34:59.240Z,0.90
2019-06-08T09:36:48.413Z,0.85
2019-06-08T09:38:39.110Z,0.95
2019-06-08T09:40:32.656Z,0.78
2019-06-08T09:42:22.615Z,0.93
2019-06-08T09:44:14.092Z,1.02
2019-06-08T09:46:05.576Z,1.00
2019-06-08T09:48:00.452Z,0.93
2019-06-08T09:49:49.492Z,1.05
2019-06-08T09:51:40.760Z,0.93
2019-06-08T09:53:37.675Z,1.00
2019-06-08T09:55:24.491Z,0.88
2019-06-08T09:57:16.344Z,1.22
2019-06-08T09:59:10.667Z,1.10
2019-06-08T10:01:02.889Z,1.25
2019-06-08T10:02:54.658Z,0.70
2019-06-08T10:04:44.742Z,1.00
2019-06-08T10:06:37.772Z,1.22
2019-06-08T10:08:28.352Z,1.10
2019-06-08T10:10:19.731Z,1.05
2019-06-08T10:12:10.394Z,1.05
2019-06-08T10:14:04.951Z,1.00
2019-06-08T10:15:54.923Z,1.20
2019-06-08T10:17:47.438Z,1.10
2019-06-08T10:19:37.619Z,1.10
2019-06-08T10:21:28.674Z,1.02
2019-06-08T10:23:30.949Z,0.82
2019-06-08T10:25:11.997Z,0.98
2019-06-08T10:27:03.637Z,1.17
2019-06-08T10:28:55.223Z,1.12
2019-06-08T10:30:49.185Z,1.00
2019-06-08T10:32:39.942Z,1.20
2019-06-08T10:34:30.963Z,1.20
2019-06-08T10:36:22.145Z,1.10
2019-06-08T10:38:13.418Z,0.93
2019-06-08T10:40:06.417Z,0.88
2019-06-08T10:41:59.305Z,1.10
2019-06-08T10:43:49.278Z,0.90
2019-06-08T10:45:40.499Z,0.90
2019-06-08T10:47:31.743Z,1.12
2019-06-08T10:49:22.586Z,1.00
2019-06-08T10:51:13.897Z,0.90
2019-06-08T10:53:08.231Z,0.70
2019-06-08T10:54:59.841Z,0.90
2019-06-08T10:56:50.011Z,1.00
2019-06-08T10:58:40.829Z,0.90
2019-06-08T11:00:31.720Z,0.93
2019-06-08T11:02:22.929Z,1.17
2019-06-08T11:04:13.440Z,0.90
2019-06-08T11:06:06.190Z,0.80
2019-06-08T11:07:59.328Z,0.90
2019-06-08T11:09:50.796Z,1.00
2019-06-08T11:11:41.962Z,0.80
2019-06-08T11:13:32.617Z,0.82
2019-06-08T11:15:23.560Z,0.70
2019-06-08T11:17:14.747Z,0.82
2019-06-08T11:19:07.617Z,1.05
2019-06-08T11:20:59.842Z,0.80
2019-06-08T11:22:50.227Z,0.88
2019-06-08T11:24:41.691Z,0.85
2019-06-08T11:26:33.102Z,1.07
2019-06-08T11:28:24.495Z,1.20
2019-06-08T11:30:23.684Z,1.15
2019-06-08T11:32:10.965Z,1.17
2019-06-08T11:34:02.222Z,1.10
2019-06-08T11:35:52.473Z,1.05
2019-06-08T11:37:43.903Z,0.80
2019-06-08T11:39:38.044Z,1.00
2019-06-08T11:41:27.807Z,1.00
2019-06-08T11:43:18.929Z,1.05
2019-06-08T11:45:12.627Z,1.30
2019-06-08T11:47:02.529Z,1.42
2019-06-08T11:48:53.548Z,0.78
2019-06-08T11:50:44.176Z,0.95
2019-06-08T11:52:38.065Z,0.93
2019-06-08T11:54:36.505Z,0.93
2019-06-08T11:56:19.800Z,1.00
2019-06-08T11:58:13.419Z,0.80
2019-06-08T12:00:09.223Z,0.80
2019-06-08T12:01:54.421Z,0.90
2019-06-08T12:03:48.224Z,1.00
2019-06-08T12:05:37.720Z,1.15
2019-06-08T12:07:30.353Z,0.80
2019-06-08T12:09:21.095Z,1.92
2019-06-08T12:11:18.835Z,1.20
2019-06-08T12:13:04.753Z,0.80
2019-06-08T12:14:58.198Z,0.82
2019-06-08T12:16:48.703Z,1.00
2019-06-08T12:18:40.512Z,1.05
2019-06-08T12:20:31.821Z,0.75
2019-06-08T12:22:23.083Z,0.78
2019-06-08T12:24:14.487Z,0.90
2019-06-08T12:26:06.105Z,1.12
2019-06-08T12:27:58.506Z,0.85
2019-06-08T12:29:50.436Z,1.10
2019-06-08T12:31:41.583Z,1.20
2019-06-08T12:33:32.732Z,1.00
2019-06-08T12:35:24.013Z,1.15
2019-06-08T12:37:21.301Z,0.80
2019-06-08T12:39:07.897Z,1.00
2019-06-08T12:40:58.844Z,0.72
2019-06-08T12:42:50.121Z,1.12
2019-06-08T12:44:43.662Z,1.32
2019-06-08T12:46:33.216Z,1.20
2019-06-08T12:48:25.380Z,1.20
2019-06-08T12:50:16.784Z,0.98
2019-06-08T12:52:08.697Z,0.90
2019-06-08T12:54:00.428Z,1.02
2019-06-08T12:55:51.984Z,1.05
2019-06-08T12:57:43.264Z,0.80
2019-06-08T12:59:34.441Z,0.93
2019-06-08T13:01:27.970Z,0.80
2019-06-08T13:03:18.649Z,0.90
2019-06-08T13:05:12.474Z,1.10
2019-06-08T13:07:02.169Z,1.07
2019-06-08T13:08:53.652Z,1.02
2019-06-08T13:10:44.324Z,1.07
2019-06-08T13:12:34.918Z,0.80
2019-06-08T13:14:28.290Z,1.00
2019-06-08T13:16:23.650Z,1.00
2019-06-08T13:18:11.974Z,1.00
2019-06-08T13:20:03.992Z,0.90
2019-06-08T13:21:54.729Z,1.10
2019-06-08T13:23:47.953Z,1.80
2019-06-08T13:25:42.824Z,1.02
2019-06-08T13:27:29.558Z,1.30
2019-06-08T13:29:22.003Z,1.00
2019-06-08T13:31:14.796Z,1.25
2019-06-08T13:33:04.433Z,1.40
2019-06-08T13:34:58.072Z,1.00
2019-06-08T13:36:48.547Z,0.85
2019-06-08T13:38:40.035Z,0.80
2019-06-08T13:40:31.676Z,0.80
2019-06-08T13:42:23.192Z,1.10
2019-06-08T13:44:15.554Z,0.85
2019-06-08T13:46:08.203Z,0.98
2019-06-08T13:47:59.358Z,0.90
2019-06-08T13:49:50.673Z,0.90
2019-06-08T13:51:41.362Z,1.25
2019-06-08T13:53:32.234Z,1.00
2019-06-08T13:55:42.297Z,0.93
2019-06-08T13:57:15.270Z,0.88
2019-06-08T13:59:07.981Z,0.80
2019-06-08T14:00:59.788Z,0.70
2019-06-08T14:02:51.071Z,0.78
2019-06-08T14:04:46.032Z,0.70
2019-06-08T14:06:34.565Z,0.88
2019-06-08T14:08:32.228Z,0.80
2019-06-08T14:10:20.605Z,0.90
2019-06-08T14:12:10.358Z,0.60
2019-06-08T14:14:01.587Z,0.60
2019-06-08T14:15:52.965Z,0.70
2019-06-08T14:17:44.040Z,1.20
2019-06-08T14:19:34.635Z,0.68
2019-06-08T14:21:34.200Z,0.78
2019-06-08T14:23:19.658Z,0.80
2019-06-08T14:25:10.859Z,0.85
2019-06-08T14:27:01.832Z,1.00
2019-06-08T14:28:53.101Z,1.00
2019-06-08T14:30:43.820Z,0.72
2019-06-08T14:32:34.498Z,0.80
2019-06-08T14:34:26.227Z,0.85
2019-06-08T14:36:20.826Z,0.75
2019-06-08T14:38:10.835Z,0.90
2019-06-08T14:40:02.008Z,0.80
2019-06-08T14:41:53.399Z,0.90
2019-06-08T14:43:44.731Z,0.72
2019-06-08T14:45:37.761Z,0.90
2019-06-08T14:47:29.211Z,1.05
2019-06-08T14:49:26.486Z,0.98
2019-06-08T14:51:12.437Z,0.70
2019-06-08T14:53:03.249Z,1.00
2019-06-08T14:54:54.450Z,0.90
2019-06-08T14:56:45.353Z,0.90
2019-06-08T14:58:38.572Z,0.80
2019-06-08T15:00:29.689Z,2.02
2019-06-08T15:02:21.251Z,1.65
2019-06-08T15:04:12.592Z,3.95
2019-06-08T15:06:03.256Z,1.47
2019-06-08T15:07:54.003Z,1.27
2019-06-08T15:09:47.727Z,1.10
2019-06-08T15:11:38.088Z,1.10
2019-06-08T15:13:31.146Z,0.80
2019-06-08T15:15:21.692Z,0.95
2019-06-08T15:17:12.622Z,0.98
2019-06-08T15:19:03.175Z,1.60
2019-06-08T15:20:53.929Z,2.05
2019-06-08T15:22:45.260Z,1.20
2019-06-08T15:24:37.963Z,1.47
2019-06-08T15:26:39.236Z,1.07
2019-06-08T15:28:22.592Z,1.10
2019-06-08T15:30:13.618Z,0.60
2019-06-08T15:32:04.428Z,0.78
2019-06-08T15:33:55.804Z,1.02
2019-06-08T15:35:47.563Z,1.17
2019-06-08T15:37:40.826Z,0.70
2019-06-08T15:39:32.701Z,0.93
2019-06-08T15:41:24.506Z,0.95
2019-06-08T15:43:14.941Z,1.10
2019-06-08T15:45:08.344Z,0.80
2019-06-08T15:46:58.811Z,0.95
2019-06-08T15:48:50.015Z,0.90
2019-06-08T15:50:40.865Z,1.10
2019-06-08T15:52:33.171Z,1.90
2019-06-08T15:54:24.621Z,1.02
2019-06-08T15:56:15.600Z,1.20
2019-06-08T15:58:08.695Z,0.98
2019-06-08T15:59:58.644Z,0.88
2019-06-08T16:01:50.131Z,1.00
2019-06-08T16:03:40.576Z,1.05
2019-06-08T16:05:31.781Z,0.95
2019-06-08T16:07:27.674Z,1.00
2019-06-08T16:09:15.014Z,0.80
2019-06-08T16:11:05.542Z,0.82
2019-06-08T16:12:56.780Z,0.95
2019-06-08T16:14:48.178Z,0.82
2019-06-08T16:16:39.648Z,0.90
2019-06-08T16:18:31.640Z,1.30
2019-06-08T16:20:23.044Z,1.12
2019-06-08T16:22:14.232Z,0.82
2019-06-08T16:24:05.381Z,0.82
2019-06-08T16:25:56.241Z,1.10
2019-06-08T16:27:47.316Z,0.98
2019-06-08T16:29:39.262Z,0.88
2019-06-08T16:31:31.092Z,0.90
2019-06-08T16:33:22.264Z,0.62
2019-06-08T16:35:12.781Z,0.80
2019-06-08T16:37:04.139Z,0.90
2019-06-08T16:38:54.640Z,0.90
2019-06-08T16:40:45.835Z,0.93
2019-06-08T16:42:37.047Z,1.00
2019-06-08T16:44:28.078Z,1.17
2019-06-08T16:46:19.882Z,1.65
2019-06-08T16:48:10.511Z,5.55
2019-06-08T16:50:01.003Z,2.65
2019-06-08T16:51:51.503Z,1.57
2019-06-08T16:53:42.588Z,1.27
2019-06-08T16:55:34.014Z,1.42
2019-06-08T16:57:25.158Z,1.30
2019-06-08T16:59:16.026Z,1.12
2019-06-08T17:01:06.975Z,0.82
2019-06-08T17:02:57.621Z,1.10
2019-06-08T17:04:49.107Z,1.30
2019-06-08T17:06:40.462Z,1.10
2019-06-08T17:08:36.713Z,1.75
2019-06-08T17:10:23.739Z,1.42
2019-06-08T17:12:14.619Z,1.20
2019-06-08T17:14:05.824Z,1.40
2019-06-08T17:15:57.029Z,1.80
2019-06-08T17:17:47.960Z,1.45
2019-06-08T17:19:40.266Z,1.67
2019-06-08T17:21:32.097Z,1.30
2019-06-08T17:23:23.649Z,1.20
2019-06-08T17:25:14.991Z,1.40
2019-06-08T17:27:05.604Z,1.40
2019-06-08T17:28:56.851Z,1.22
2019-06-08T17:30:48.091Z,1.27
2019-06-08T17:32:40.560Z,1.20
2019-06-08T17:34:32.094Z,1.27
2019-06-08T17:36:23.306Z,1.12
2019-06-08T17:38:14.628Z,1.10
2019-06-08T17:40:05.783Z,1.25
2019-06-08T17:41:57.019Z,1.35
2019-06-08T17:43:47.281Z,1.45
2019-06-08T17:45:38.461Z,1.22
2019-06-08T17:47:29.571Z,1.50
2019-06-08T17:49:20.984Z,1.47
2019-06-08T17:51:11.668Z,1.30
2019-06-08T17:53:02.221Z,1.30
2019-06-08T17:54:53.094Z,1.20
2019-06-08T17:56:43.959Z,1.30
2019-06-08T17:58:35.226Z,1.20
2019-06-08T18:00:26.616Z,1.52
2019-06-08T18:02:25.420Z,1.65
2019-06-08T18:04:17.542Z,1.50
2019-06-08T18:06:08.145Z,1.42
2019-06-08T18:07:58.912Z,1.40
2019-06-08T18:09:50.189Z,1.35
2019-06-08T18:11:42.268Z,1.60
2019-06-08T18:13:33.972Z,3.42
2019-06-08T18:15:24.863Z,4.85
2019-06-08T18:17:17.801Z,3.05
2019-06-08T18:19:08.184Z,6.03
2019-06-08T18:20:59.162Z,3.05
2019-06-08T18:22:50.356Z,2.02
2019-06-08T18:24:42.333Z,2.75
2019-06-08T18:26:34.345Z,1.95
2019-06-08T18:28:27.726Z,2.25
2019-06-08T18:30:18.932Z,1.75
2019-06-08T18:32:10.116Z,2.00
2019-06-08T18:34:02.096Z,1.70
2019-06-08T18:35:53.354Z,2.10
2019-06-08T18:37:44.430Z,1.50
2019-06-08T18:39:40.094Z,2.02
2019-06-08T18:41:28.644Z,2.67
2019-06-08T18:43:19.879Z,2.12
2019-06-08T18:45:10.844Z,1.82
2019-06-08T18:47:02.024Z,2.30
2019-06-08T18:48:53.112Z,2.12
2019-06-08T18:50:45.408Z,2.60
2019-06-08T18:52:38.836Z,2.00
2019-06-08T18:54:28.628Z,1.90
2019-06-08T18:56:19.893Z,1.57
2019-06-08T18:58:20.613Z,1.62
2019-06-08T19:00:08.375Z,1.80
2019-06-08T19:01:55.591Z,1.70
2019-06-08T19:03:49.813Z,1.70
2019-06-08T19:05:41.867Z,3.87
2019-06-08T19:07:30.622Z,2.27
2019-06-08T19:09:21.882Z,3.37
2019-06-08T19:11:12.522Z,2.35
2019-06-08T19:13:03.202Z,2.08
2019-06-08T19:14:54.076Z,1.90
2019-06-08T19:16:49.899Z,2.02
2019-06-08T19:18:41.447Z,1.82
2019-06-08T19:20:29.270Z,1.62
2019-06-08T19:22:20.651Z,1.50
2019-06-08T19:24:12.083Z,2.10
2019-06-08T19:26:03.424Z,1.80
2019-06-08T19:27:53.952Z,2.20
2019-06-08T19:29:45.957Z,2.10
2019-06-08T19:31:38.972Z,2.08
2019-06-08T19:33:28.820Z,2.12
2019-06-08T19:35:19.860Z,2.27
2019-06-08T19:37:10.459Z,2.00
2019-06-08T19:39:01.648Z,2.30
2019-06-08T19:40:53.024Z,1.92
2019-06-08T19:42:53.568Z,2.35
2019-06-08T19:44:38.594Z,2.20
2019-06-08T19:46:28.593Z,5.37
2019-06-08T19:48:19.559Z,2.60
2019-06-08T19:50:10.961Z,2.37
2019-06-08T19:52:01.837Z,2.95
2019-06-08T19:53:55.020Z,2.45
2019-06-08T19:55:52.007Z,2.45
2019-06-08T19:57:37.604Z,3.17
2019-06-08T19:59:28.153Z,3.67
2019-06-08T20:01:18.964Z,2.98
2019-06-08T20:03:09.931Z,2.25
2019-06-08T20:05:01.295Z,2.50
2019-06-08T20:06:53.167Z,2.15
2019-06-08T20:08:45.028Z,2.30
2019-06-08T20:10:36.157Z,2.27
2019-06-08T20:12:28.224Z,2.25
2019-06-08T20:14:19.536Z,2.42
2019-06-08T20:16:10.655Z,1.90
2019-06-08T20:18:01.875Z,3.05
2019-06-08T20:19:53.463Z,4.70
2019-06-08T20:21:45.331Z,4.28
2019-06-08T20:23:38.247Z,3.02
2019-06-08T20:25:29.440Z,2.58
2019-06-08T20:27:19.976Z,2.22
2019-06-08T20:29:15.978Z,2.75
2019-06-08T20:31:03.709Z,2.62
2019-06-08T20:32:54.686Z,3.75
2019-06-08T20:34:47.250Z,4.58
2019-06-08T20:36:37.787Z,3.20
2019-06-08T20:38:37.839Z,3.50
2019-06-08T20:40:20.972Z,2.60
2019-06-08T20:42:12.184Z,2.55
2019-06-08T20:44:03.356Z,2.65
2019-06-08T20:45:54.820Z,1.85
2019-06-08T20:47:50.310Z,2.05
2019-06-08T20:49:38.767Z,2.00
2019-06-08T20:51:30.042Z,2.42
2019-06-08T20:53:21.303Z,2.45
2019-06-08T20:55:11.747Z,2.52
2019-06-08T20:57:02.745Z,2.75
2019-06-08T20:58:54.068Z,2.85
2019-06-08T21:00:48.068Z,2.87
2019-06-08T21:02:37.402Z,2.52
2019-06-08T21:04:27.961Z,2.37
2019-06-08T21:06:19.293Z,2.70
2019-06-08T21:08:13.767Z,2.65
2019-06-08T21:10:04.526Z,2.55
2019-06-08T21:11:56.352Z,3.45
2019-06-08T21:13:51.167Z,2.90
2019-06-08T21:15:40.484Z,2.40
2019-06-08T21:17:31.085Z,2.47
2019-06-08T21:19:21.640Z,2.58
2019-06-08T21:21:12.803Z,2.50
2019-06-08T21:23:03.970Z,2.47
2019-06-08T21:24:59.198Z,2.85
2019-06-08T21:26:52.271Z,2.52
2019-06-08T21:28:39.432Z,2.52
2019-06-08T21:30:30.409Z,2.40
2019-06-08T21:32:21.843Z,2.35
2019-06-08T21:34:12.900Z,2.47
2019-06-08T21:36:05.271Z,2.65
2019-06-08T21:37:59.683Z,2.60
2019-06-08T21:39:53.035Z,2.47
2019-06-08T21:41:41.868Z,2.77
2019-06-08T21:43:32.681Z,2.27
2019-06-08T21:45:24.045Z,2.62
2019-06-08T21:47:15.280Z,2.40
2019-06-08T21:49:07.638Z,2.65
2019-06-08T21:51:01.429Z,2.30
2019-06-08T21:52:51.909Z,2.20
2019-06-08T21:54:42.811Z,2.47
2019-06-08T21:56:34.108Z,2.17
2019-06-08T21:58:25.427Z,2.40
2019-06-08T22:00:35.790Z,2.00
2019-06-08T22:02:08.672Z,2.40
2019-06-08T22:04:00.255Z,2.10
2019-06-08T22:05:51.780Z,2.20
2019-06-08T22:07:43.225Z,2.80
2019-06-08T22:09:34.336Z,2.33
2019-06-08T22:11:25.599Z,2.10
2019-06-08T22:13:17.529Z,2.50
2019-06-08T22:15:08.102Z,2.80
2019-06-08T22:17:01.240Z,2.55
2019-06-08T22:18:51.998Z,2.47
2019-06-08T22:20:43.077Z,2.50
2019-06-08T22:22:34.255Z,2.60
2019-06-08T22:24:25.142Z,2.55
2019-06-08T22:26:17.811Z,2.42
2019-06-08T22:28:08.464Z,2.42
2019-06-08T22:30:00.992Z,2.85
2019-06-08T22:31:52.210Z,2.85
2019-06-08T22:33:44.000Z,2.80
2019-06-08T22:35:37.125Z,2.55
2019-06-08T22:37:27.040Z,2.80
2019-06-08T22:39:17.640Z,2.70
2019-06-08T22:41:08.465Z,2.40
2019-06-08T22:43:00.860Z,2.30
2019-06-08T22:44:52.734Z,2.30
2019-06-08T22:46:44.002Z,2.62
2019-06-08T22:48:34.729Z,2.47
2019-06-08T22:50:27.546Z,2.52
2019-06-08T22:52:18.619Z,2.08
2019-06-08T22:54:10.030Z,2.33
2019-06-08T22:56:02.609Z,2.70
2019-06-08T22:57:53.865Z,2.25
2019-06-08T22:59:44.817Z,2.70
2019-06-08T23:01:38.242Z,2.12
2019-06-08T23:03:28.128Z,2.27
2019-06-08T23:05:18.807Z,2.52
2019-06-08T23:07:28.385Z,2.20
2019-06-08T23:09:09.193Z,2.20
2019-06-08T23:11:02.061Z,3.05
2019-06-08T23:12:52.515Z,2.60
2019-06-08T23:14:43.870Z,1.98
2019-06-08T23:16:34.776Z,2.50
2019-06-08T23:18:25.668Z,2.27
2019-06-08T23:20:18.464Z,2.40
2019-06-08T23:22:09.708Z,1.85
2019-06-08T23:24:01.315Z,2.00
2019-06-08T23:25:53.373Z,2.42
2019-06-08T23:27:43.899Z,2.35
2019-06-08T23:29:34.469Z,2.00
2019-06-08T23:31:28.932Z,2.30
2019-06-08T23:33:19.027Z,2.20
2019-06-08T23:35:10.251Z,2.12
2019-06-08T23:37:05.576Z,2.80
2019-06-08T23:38:53.608Z,2.27
2019-06-08T23:40:44.221Z,2.42
2019-06-08T23:42:35.101Z,2.15
2019-06-08T23:44:28.147Z,2.25
2019-06-08T23:46:18.263Z,2.40
2019-06-08T23:48:08.925Z,1.82
2019-06-08T23:50:02.039Z,2.00
2019-06-08T23:51:52.597Z,2.25
2019-06-08T23:53:43.212Z,2.45
2019-06-08T23:55:33.771Z,2.35
2019-06-08T23:57:24.425Z,2.22
2019-06-08T23:59:17.760Z,2.70
